createdAt,value
2022-12-31T00:01:05.328Z,0.35
2022-12-31T00:03:33.825Z,0.20
2022-12-31T00:06:01.876Z,1.13
2022-12-31T00:08:31.266Z,2.35
2022-12-31T00:10:59.277Z,0.50
2022-12-31T00:13:27.278Z,0.40
2022-12-31T00:15:55.283Z,0.13
2022-12-31T00:18:23.315Z,1.08
2022-12-31T00:20:51.279Z,0.20
2022-12-31T00:23:19.427Z,0.85
2022-12-31T00:25:48.811Z,0.43
2022-12-31T00:28:16.976Z,0.10
2022-12-31T00:30:44.987Z,2.00
2022-12-31T00:33:13.002Z,0.80
2022-12-31T00:35:41.039Z,1.40
2022-12-31T00:38:08.986Z,0.60
2022-12-31T00:40:36.914Z,1.27
2022-12-31T00:43:06.286Z,0.10
2022-12-31T00:45:34.314Z,0.20
2022-12-31T00:48:02.279Z,0.68
2022-12-31T00:50:30.231Z,0.52
2022-12-31T00:52:58.300Z,1.13
2022-12-31T00:55:26.377Z,0.00
2022-12-31T00:57:54.453Z,0.50
2022-12-31T01:00:24.519Z,3.00
2022-12-31T01:02:52.649Z,1.30
2022-12-31T01:05:20.709Z,0.30
2022-12-31T01:07:48.736Z,0.20
2022-12-31T01:10:37.271Z,0.10
2022-12-31T01:13:05.392Z,1.63
2022-12-31T01:15:36.342Z,1.10
2022-12-31T01:18:04.453Z,0.38
2022-12-31T01:20:32.506Z,0.90
2022-12-31T01:23:00.442Z,0.25
2022-12-31T01:25:28.379Z,0.52
2022-12-31T01:27:56.377Z,0.10
2022-12-31T01:30:24.433Z,0.10
2022-12-31T01:32:53.820Z,0.30
2022-12-31T01:35:21.887Z,0.10
2022-12-31T01:37:49.894Z,0.08
2022-12-31T01:40:18.019Z,0.10
2022-12-31T01:42:46.027Z,0.55
2022-12-31T01:45:15.512Z,0.10
2022-12-31T01:47:46.159Z,0.22
2022-12-31T01:50:19.268Z,0.28
2022-12-31T01:52:50.779Z,0.57
2022-12-31T01:55:22.546Z,0.30
2022-12-31T01:57:55.445Z,0.32
2022-12-31T02:00:23.513Z,0.00
2022-12-31T02:02:52.029Z,0.20
2022-12-31T02:05:28.165Z,0.50
2022-12-31T02:07:57.161Z,0.20
2022-12-31T02:10:25.130Z,0.17
2022-12-31T02:12:53.667Z,0.17
2022-12-31T02:15:27.618Z,0.40
2022-12-31T02:18:03.319Z,0.68
2022-12-31T02:21:13.295Z,0.10
2022-12-31T02:24:08.598Z,0.10
2022-12-31T02:26:50.826Z,0.10
2022-12-31T02:29:57.718Z,0.10
2022-12-31T02:32:32.742Z,0.15
2022-12-31T02:35:05.549Z,0.17
2022-12-31T02:37:36.892Z,0.30
2022-12-31T02:40:07.678Z,0.88
2022-12-31T02:42:35.560Z,0.20
2022-12-31T02:45:03.541Z,0.15
2022-12-31T02:47:44.635Z,0.10
2022-12-31T02:50:27.704Z,0.52
2022-12-31T02:53:05.009Z,0.10
2022-12-31T02:55:41.307Z,0.10
2022-12-31T02:58:16.423Z,0.20
2022-12-31T03:01:07.544Z,0.00
2022-12-31T03:03:42.146Z,0.20
2022-12-31T03:06:12.186Z,0.95
2022-12-31T03:08:57.359Z,0.10
2022-12-31T03:11:39.312Z,1.60
2022-12-31T03:14:07.447Z,0.53
2022-12-31T03:16:35.795Z,0.10
2022-12-31T03:19:22.736Z,1.00
2022-12-31T03:22:08.120Z,0.60
2022-12-31T03:24:53.381Z,1.00
2022-12-31T03:27:21.351Z,0.80
2022-12-31T03:29:49.296Z,0.50
2022-12-31T03:32:17.292Z,0.88
2022-12-31T03:34:46.668Z,1.40
2022-12-31T03:37:14.716Z,1.05
2022-12-31T03:39:42.801Z,0.30
2022-12-31T03:42:10.767Z,0.20
2022-12-31T03:44:38.675Z,0.75
2022-12-31T03:47:06.988Z,0.35
2022-12-31T03:49:34.920Z,1.85
2022-12-31T03:52:06.375Z,0.60
2022-12-31T03:54:34.353Z,0.15
2022-12-31T03:57:02.387Z,0.22
2022-12-31T03:59:30.321Z,1.02
2022-12-31T04:01:58.364Z,0.10
2022-12-31T04:04:26.476Z,0.63
2022-12-31T04:06:54.374Z,0.30
2022-12-31T04:09:23.911Z,1.38
2022-12-31T04:11:51.800Z,0.10
2022-12-31T04:14:19.839Z,0.93
2022-12-31T04:16:47.907Z,0.00
2022-12-31T04:19:15.870Z,0.35
2022-12-31T04:21:43.931Z,1.75
2022-12-31T04:24:12.038Z,2.17
2022-12-31T04:26:42.398Z,0.55
2022-12-31T04:29:10.382Z,0.10
2022-12-31T04:31:38.611Z,0.10
2022-12-31T04:34:06.548Z,0.30
2022-12-31T04:36:34.657Z,0.10
2022-12-31T04:39:02.670Z,0.10
2022-12-31T04:41:30.689Z,0.10
2022-12-31T04:44:00.614Z,0.30
2022-12-31T04:46:30.798Z,0.20
2022-12-31T04:48:59.011Z,0.10
2022-12-31T04:51:28.082Z,0.13
2022-12-31T04:53:56.073Z,0.20
2022-12-31T04:56:24.770Z,2.60
2022-12-31T04:58:52.693Z,0.00
2022-12-31T05:01:22.814Z,0.63
2022-12-31T05:03:51.753Z,0.30
2022-12-31T05:06:22.113Z,0.10
2022-12-31T05:08:50.937Z,0.30
2022-12-31T05:11:19.149Z,1.70
2022-12-31T05:13:47.438Z,0.13
2022-12-31T05:16:15.690Z,0.20
2022-12-31T05:18:45.101Z,0.77
2022-12-31T05:21:20.383Z,2.28
2022-12-31T05:23:49.142Z,0.30
2022-12-31T05:26:17.910Z,3.75
2022-12-31T05:28:45.793Z,0.68
2022-12-31T05:31:14.388Z,0.10
2022-12-31T05:33:42.728Z,0.38
2022-12-31T05:36:12.176Z,0.15
2022-12-31T05:38:40.155Z,0.17
2022-12-31T05:41:09.416Z,0.10
2022-12-31T05:43:37.417Z,0.20
2022-12-31T05:46:06.371Z,0.10
2022-12-31T05:48:34.379Z,0.17
2022-12-31T05:51:02.789Z,0.10
2022-12-31T05:53:34.309Z,0.10
2022-12-31T05:56:02.450Z,0.35
2022-12-31T05:58:30.396Z,0.32
2022-12-31T06:00:58.447Z,0.20
2022-12-31T06:03:26.509Z,0.80
2022-12-31T06:05:54.638Z,0.15
2022-12-31T06:08:23.974Z,0.20
2022-12-31T06:10:53.368Z,0.57
2022-12-31T06:13:21.692Z,1.48
2022-12-31T06:15:49.693Z,2.15
2022-12-31T06:18:17.613Z,0.40
2022-12-31T06:20:45.616Z,0.63
2022-12-31T06:23:13.566Z,0.10
2022-12-31T06:25:42.106Z,0.40
2022-12-31T06:28:19.512Z,0.57
2022-12-31T06:30:48.402Z,0.10
2022-12-31T06:33:16.462Z,0.47
2022-12-31T06:35:44.505Z,0.63
2022-12-31T06:38:12.497Z,0.68
2022-12-31T06:40:40.437Z,0.63
2022-12-31T06:43:08.372Z,0.30
2022-12-31T06:45:39.520Z,1.00
2022-12-31T06:48:08.188Z,0.20
2022-12-31T06:50:36.571Z,0.30
2022-12-31T06:53:04.799Z,0.40
2022-12-31T06:55:33.748Z,0.50
2022-12-31T06:58:05.420Z,0.40
2022-12-31T07:00:37.990Z,1.45
2022-12-31T07:03:25.816Z,1.80
2022-12-31T07:05:57.726Z,1.52
2022-12-31T07:08:38.171Z,0.40
2022-12-31T07:11:13.218Z,2.88
2022-12-31T07:14:07.979Z,5.72
2022-12-31T07:16:51.059Z,4.70
2022-12-31T07:19:29.788Z,2.28
2022-12-31T07:22:00.107Z,13.05
2022-12-31T07:24:29.016Z,4.55
2022-12-31T07:27:13.829Z,1.33
2022-12-31T07:29:59.454Z,0.82
2022-12-31T07:32:41.770Z,1.00
2022-12-31T07:35:19.841Z,2.28
2022-12-31T07:37:56.524Z,1.02
2022-12-31T07:40:33.915Z,1.92
2022-12-31T07:43:10.353Z,1.10
2022-12-31T07:45:45.645Z,0.80
2022-12-31T07:48:25.438Z,1.42
2022-12-31T07:50:55.488Z,0.70
2022-12-31T07:53:24.571Z,0.98
2022-12-31T07:56:01.801Z,1.25
2022-12-31T07:58:51.721Z,0.55
2022-12-31T08:01:31.537Z,0.30
2022-12-31T08:04:05.893Z,0.63
2022-12-31T08:06:44.715Z,1.02
2022-12-31T08:09:25.635Z,1.20
2022-12-31T08:11:57.690Z,0.90
2022-12-31T08:14:26.850Z,0.75
2022-12-31T08:16:55.959Z,1.10
2022-12-31T08:19:28.688Z,0.88
2022-12-31T08:24:50.858Z,1.45
2022-12-31T08:27:24.892Z,0.88
2022-12-31T08:30:02.209Z,0.95
2022-12-31T08:32:37.775Z,1.10
2022-12-31T08:35:18.173Z,0.63
2022-12-31T08:37:52.497Z,2.03
2022-12-31T08:40:26.317Z,1.88
2022-12-31T08:43:20.069Z,0.52
2022-12-31T08:45:50.377Z,0.80
2022-12-31T08:48:29.223Z,1.67
2022-12-31T08:50:59.494Z,0.40
2022-12-31T08:53:28.077Z,0.38
2022-12-31T08:56:02.692Z,0.95
2022-12-31T08:58:42.065Z,0.45
2022-12-31T09:01:10.592Z,0.47
2022-12-31T09:03:54.820Z,0.52
2022-12-31T09:06:30.308Z,1.10
2022-12-31T09:09:04.237Z,0.32
2022-12-31T09:11:44.289Z,0.43
2022-12-31T09:14:26.725Z,1.08
2022-12-31T09:17:03.205Z,0.63
2022-12-31T09:19:31.298Z,0.77
2022-12-31T09:22:01.204Z,1.27
2022-12-31T09:24:29.575Z,1.48
2022-12-31T09:27:05.790Z,0.65
2022-12-31T09:29:48.830Z,0.63
2022-12-31T09:32:26.136Z,0.50
2022-12-31T09:34:58.711Z,0.38
2022-12-31T09:37:39.646Z,0.47
2022-12-31T09:40:48.607Z,1.17
2022-12-31T09:44:01.439Z,0.95
2022-12-31T09:47:12.353Z,0.38
2022-12-31T09:50:11.106Z,0.95
2022-12-31T09:52:57.499Z,0.30
2022-12-31T09:55:36.818Z,0.45
2022-12-31T09:58:17.875Z,0.30
2022-12-31T10:00:52.883Z,0.40
2022-12-31T10:03:41.638Z,1.55
2022-12-31T10:06:22.988Z,0.30
2022-12-31T10:09:08.930Z,1.15
2022-12-31T10:11:58.661Z,0.10
2022-12-31T10:14:47.175Z,0.20
2022-12-31T10:17:30.278Z,0.45
2022-12-31T10:20:25.558Z,0.57
2022-12-31T10:23:22.559Z,1.65
2022-12-31T10:26:17.802Z,1.95
2022-12-31T10:28:54.797Z,1.88
2022-12-31T10:31:38.572Z,1.77
2022-12-31T10:34:15.699Z,0.90
2022-12-31T10:36:55.371Z,0.90
2022-12-31T10:39:44.784Z,0.40
2022-12-31T10:42:34.666Z,1.27
2022-12-31T10:45:23.309Z,0.80
2022-12-31T10:48:38.048Z,0.82
2022-12-31T10:51:28.478Z,0.98
2022-12-31T10:54:38.941Z,0.57
2022-12-31T10:57:40.178Z,0.30
2022-12-31T11:00:19.549Z,0.60
2022-12-31T11:03:52.872Z,0.20
2022-12-31T11:07:09.038Z,0.68
2022-12-31T11:10:18.658Z,0.32
2022-12-31T11:13:34.589Z,0.77
2022-12-31T11:16:20.628Z,1.85
2022-12-31T11:18:56.891Z,0.20
2022-12-31T11:21:41.981Z,0.88
2022-12-31T11:24:22.978Z,0.50
2022-12-31T11:27:03.635Z,0.50
2022-12-31T11:29:48.822Z,1.55
2022-12-31T11:32:27.916Z,0.40
2022-12-31T11:35:19.098Z,0.52
2022-12-31T11:37:49.650Z,0.30
2022-12-31T11:40:42.509Z,1.60
2022-12-31T11:43:23.542Z,0.80
2022-12-31T11:46:27.758Z,2.10
2022-12-31T11:49:21.499Z,0.20
2022-12-31T11:52:11.718Z,0.57
2022-12-31T11:55:04.982Z,0.63
2022-12-31T11:57:36.314Z,0.80
2022-12-31T12:00:14.553Z,0.85
2022-12-31T12:02:45.496Z,0.70
2022-12-31T12:05:18.366Z,0.88
2022-12-31T12:07:46.626Z,2.67
2022-12-31T12:10:28.030Z,2.38
2022-12-31T12:13:01.820Z,0.43
2022-12-31T12:15:33.144Z,0.60
2022-12-31T12:18:07.239Z,1.30
2022-12-31T12:20:39.279Z,0.50
2022-12-31T12:23:15.976Z,0.68
2022-12-31T12:25:50.330Z,0.40
2022-12-31T12:29:07.717Z,0.38
2022-12-31T12:31:36.144Z,0.45
2022-12-31T12:34:05.119Z,0.40
2022-12-31T12:36:34.604Z,0.88
2022-12-31T12:39:04.506Z,0.57
2022-12-31T12:41:33.272Z,0.93
2022-12-31T12:44:06.948Z,0.30
2022-12-31T12:46:37.160Z,0.88
2022-12-31T12:49:05.661Z,2.10
2022-12-31T12:51:51.355Z,5.32
2022-12-31T12:54:37.178Z,2.42
2022-12-31T12:57:13.871Z,1.05
2022-12-31T13:00:04.387Z,0.65
2022-12-31T13:03:02.372Z,1.17
2022-12-31T13:05:43.779Z,1.23
2022-12-31T13:08:23.268Z,0.50
2022-12-31T13:11:03.376Z,1.17
2022-12-31T13:13:39.534Z,0.70
2022-12-31T13:17:57.293Z,0.57
2022-12-31T13:23:44.081Z,7.18
2022-12-31T13:26:20.203Z,2.17
2022-12-31T13:29:10.289Z,0.93
2022-12-31T13:31:41.393Z,0.80
2022-12-31T13:34:17.056Z,1.45
2022-12-31T13:36:48.667Z,0.60
2022-12-31T13:39:21.812Z,0.95
2022-12-31T13:41:56.307Z,0.52
2022-12-31T13:44:31.961Z,0.75
2022-12-31T13:47:04.669Z,0.50
2022-12-31T13:52:07.951Z,0.60
2022-12-31T13:54:43.581Z,0.35
2022-12-31T13:57:21.501Z,2.75
2022-12-31T13:59:55.767Z,0.70
2022-12-31T14:02:34.584Z,0.73
2022-12-31T14:05:07.637Z,0.73
2022-12-31T14:07:45.297Z,0.38
2022-12-31T14:10:16.306Z,0.90
2022-12-31T14:12:51.866Z,1.88
2022-12-31T14:15:24.994Z,0.28
2022-12-31T14:18:01.719Z,0.40
2022-12-31T14:20:36.384Z,0.65
2022-12-31T14:23:13.402Z,0.35
2022-12-31T14:25:49.051Z,0.45
2022-12-31T14:28:22.265Z,0.82
2022-12-31T14:30:54.831Z,0.47
2022-12-31T14:33:40.606Z,0.30
2022-12-31T14:36:20.434Z,0.70
2022-12-31T14:38:59.561Z,0.88
2022-12-31T14:41:45.976Z,0.80
2022-12-31T14:44:27.666Z,0.57
2022-12-31T14:47:06.689Z,1.00
2022-12-31T14:49:45.540Z,0.80
2022-12-31T14:52:25.101Z,2.20
2022-12-31T14:55:01.994Z,1.08
2022-12-31T14:58:16.773Z,1.63
2022-12-31T15:00:35.142Z,2.08
2022-12-31T15:03:04.791Z,3.13
2022-12-31T15:05:34.485Z,2.40
2022-12-31T15:08:24.626Z,1.88
2022-12-31T15:11:06.971Z,1.35
2022-12-31T15:13:50.621Z,1.27
2022-12-31T15:16:36.278Z,0.95
2022-12-31T15:19:51.651Z,1.58
2022-12-31T15:22:34.776Z,2.17
2022-12-31T15:25:03.484Z,1.63
2022-12-31T15:27:37.118Z,1.63
2022-12-31T15:30:08.199Z,5.95
2022-12-31T15:32:38.986Z,5.30
2022-12-31T15:35:26.590Z,2.70
2022-12-31T15:38:02.519Z,4.05
2022-12-31T15:40:31.604Z,2.67
2022-12-31T15:43:03.513Z,3.03
2022-12-31T15:45:38.341Z,2.75
2022-12-31T15:48:14.373Z,4.40
2022-12-31T15:50:44.175Z,4.03
2022-12-31T15:53:25.841Z,1.60
2022-12-31T15:55:55.814Z,1.90
2022-12-31T15:58:27.412Z,2.63
2022-12-31T16:01:04.488Z,2.83
2022-12-31T16:03:33.599Z,6.35
2022-12-31T16:06:03.422Z,8.48
2022-12-31T16:08:34.585Z,7.43
2022-12-31T16:11:05.730Z,10.20
2022-12-31T16:13:36.381Z,10.40
2022-12-31T16:16:08.255Z,6.22
2022-12-31T16:18:40.293Z,6.32
2022-12-31T16:21:23.448Z,5.60
2022-12-31T16:23:52.346Z,5.68
2022-12-31T16:26:20.797Z,7.55
2022-12-31T16:28:49.248Z,5.70
2022-12-31T16:31:20.842Z,6.47
2022-12-31T16:33:49.228Z,5.95
2022-12-31T16:36:21.515Z,4.20
2022-12-31T16:38:50.127Z,5.07
2022-12-31T16:41:20.011Z,3.63
2022-12-31T16:43:50.217Z,3.10
2022-12-31T16:46:25.550Z,3.85
2022-12-31T16:48:56.695Z,5.85
2022-12-31T16:51:30.099Z,4.78
2022-12-31T16:53:59.064Z,3.33
2022-12-31T16:56:33.057Z,3.00
2022-12-31T16:59:04.320Z,3.20
2022-12-31T17:01:36.701Z,3.88
2022-12-31T17:04:07.565Z,4.28
2022-12-31T17:06:35.588Z,4.03
2022-12-31T17:09:14.030Z,5.00
2022-12-31T17:11:50.395Z,6.88
2022-12-31T17:14:20.234Z,4.70
2022-12-31T17:17:02.693Z,5.43
2022-12-31T17:19:43.517Z,3.85
2022-12-31T17:22:21.732Z,20.65
2022-12-31T17:24:52.714Z,54.53
2022-12-31T17:27:21.052Z,56.55
2022-12-31T17:29:49.083Z,34.00
2022-12-31T17:32:31.988Z,43.13
2022-12-31T17:37:29.584Z,33.78
2022-12-31T17:42:49.532Z,25.08
2022-12-31T17:45:21.506Z,25.42
2022-12-31T17:47:53.829Z,30.52
2022-12-31T17:50:24.883Z,31.25
2022-12-31T17:52:56.778Z,24.58
2022-12-31T17:55:24.991Z,25.92
2022-12-31T17:57:54.986Z,24.10
2022-12-31T18:00:26.432Z,23.17
2022-12-31T18:02:56.100Z,25.35
2022-12-31T18:05:25.644Z,25.20
2022-12-31T18:07:54.111Z,19.05
2022-12-31T18:10:24.908Z,23.35
2022-12-31T18:12:53.291Z,24.42
2022-12-31T18:15:23.264Z,12.93
2022-12-31T18:17:51.854Z,15.73
2022-12-31T18:20:21.310Z,24.10
2022-12-31T18:22:49.434Z,10.70
2022-12-31T18:25:20.781Z,20.05
2022-12-31T18:27:49.427Z,19.50
2022-12-31T18:30:17.780Z,19.88
2022-12-31T18:32:46.960Z,24.38
2022-12-31T18:35:48.545Z,14.27
2022-12-31T18:38:11.586Z,13.68
2022-12-31T18:40:42.662Z,22.65
2022-12-31T18:43:15.855Z,24.35
2022-12-31T18:45:43.970Z,16.35
2022-12-31T18:48:13.352Z,28.30
2022-12-31T18:50:41.690Z,26.83
2022-12-31T18:53:16.695Z,7.15
2022-12-31T18:55:48.715Z,17.45
2022-12-31T18:58:17.171Z,21.40
2022-12-31T19:00:45.948Z,22.60
2022-12-31T19:03:18.141Z,36.33
2022-12-31T19:05:49.574Z,19.35
2022-12-31T19:08:19.254Z,30.83
2022-12-31T19:10:47.872Z,26.77
2022-12-31T19:13:17.773Z,21.83
2022-12-31T19:15:47.278Z,12.98
2022-12-31T19:18:15.449Z,20.33
2022-12-31T19:20:44.012Z,17.33
2022-12-31T19:23:16.340Z,19.13
2022-12-31T19:25:47.352Z,21.10
2022-12-31T19:28:18.467Z,15.85
2022-12-31T19:30:46.854Z,19.38
2022-12-31T19:33:15.684Z,19.75
2022-12-31T19:35:44.392Z,20.13
2022-12-31T19:38:18.893Z,23.00
2022-12-31T19:40:48.862Z,19.02
2022-12-31T19:43:18.870Z,18.25
2022-12-31T19:45:47.094Z,18.77
2022-12-31T19:48:16.764Z,18.42
2022-12-31T19:50:47.067Z,20.13
2022-12-31T19:53:17.997Z,17.08
2022-12-31T19:55:46.324Z,15.80
2022-12-31T19:58:18.660Z,18.65
2022-12-31T20:00:53.930Z,14.90
2022-12-31T20:03:25.463Z,16.10
2022-12-31T20:06:02.819Z,11.20
2022-12-31T20:08:30.906Z,11.00
2022-12-31T20:10:59.057Z,16.33
2022-12-31T20:13:28.634Z,13.48
2022-12-31T20:15:56.572Z,15.80
2022-12-31T20:18:24.531Z,13.93
2022-12-31T20:20:56.060Z,15.20
2022-12-31T20:23:24.167Z,12.75
2022-12-31T20:25:58.544Z,12.10
2022-12-31T20:28:28.311Z,27.00
2022-12-31T20:30:56.558Z,15.60
2022-12-31T20:33:24.884Z,17.23
2022-12-31T20:35:52.935Z,13.32
2022-12-31T20:38:20.946Z,13.65
2022-12-31T20:40:48.898Z,12.60
2022-12-31T20:43:16.922Z,11.25
2022-12-31T20:45:47.725Z,10.82
2022-12-31T20:48:15.703Z,12.90
2022-12-31T20:50:43.639Z,11.07
2022-12-31T20:53:11.606Z,9.63
2022-12-31T20:55:39.586Z,9.30
2022-12-31T20:58:07.549Z,10.90
2022-12-31T21:00:35.512Z,10.05
2022-12-31T21:03:18.636Z,9.70
2022-12-31T21:05:55.056Z,8.88
2022-12-31T21:08:23.500Z,10.20
2022-12-31T21:10:51.942Z,8.27
2022-12-31T21:13:22.798Z,6.38
2022-12-31T21:15:51.583Z,6.40
2022-12-31T21:18:21.687Z,7.70
2022-12-31T21:20:50.372Z,7.00
2022-12-31T21:23:19.610Z,6.68
2022-12-31T21:25:50.920Z,7.65
2022-12-31T21:28:18.958Z,6.57
2022-12-31T21:30:47.003Z,6.50
2022-12-31T21:33:15.077Z,6.75
2022-12-31T21:35:51.807Z,7.05
2022-12-31T21:38:21.691Z,5.22
2022-12-31T21:40:50.099Z,5.65
2022-12-31T21:43:18.080Z,6.22
2022-12-31T21:45:46.298Z,5.00
2022-12-31T21:48:23.254Z,4.68
2022-12-31T21:50:54.251Z,4.55
2022-12-31T21:53:27.921Z,5.00
2022-12-31T21:56:14.528Z,3.85
2022-12-31T21:58:44.020Z,4.45
2022-12-31T22:01:34.921Z,5.78
2022-12-31T22:04:02.941Z,3.65
2022-12-31T22:06:34.564Z,4.60
2022-12-31T22:09:02.557Z,4.78
2022-12-31T22:11:30.553Z,3.95
2022-12-31T22:13:58.619Z,4.82
2022-12-31T22:16:26.742Z,8.55
2022-12-31T22:18:56.641Z,5.15
2022-12-31T22:21:26.580Z,5.20
2022-12-31T22:23:58.626Z,6.25
2022-12-31T22:26:28.613Z,6.18
2022-12-31T22:28:59.339Z,4.95
2022-12-31T22:31:30.443Z,4.80
2022-12-31T22:33:59.465Z,5.00
2022-12-31T22:36:27.617Z,5.65
2022-12-31T22:38:59.625Z,4.38
2022-12-31T22:41:28.939Z,4.88
2022-12-31T22:44:03.520Z,3.08
2022-12-31T22:46:33.022Z,3.65
2022-12-31T22:49:02.361Z,4.68
2022-12-31T22:51:55.741Z,4.65
2022-12-31T22:54:20.646Z,6.38
2022-12-31T22:56:48.731Z,7.82
2022-12-31T22:59:16.701Z,6.88
2022-12-31T23:01:44.777Z,5.47
2022-12-31T23:04:13.291Z,65.05
2022-12-31T23:06:44.278Z,172.05
2022-12-31T23:09:30.757Z,230.00
2022-12-31T23:12:00.786Z,217.80
2022-12-31T23:14:46.857Z,162.98
2022-12-31T23:17:35.597Z,144.45
2022-12-31T23:20:20.989Z,254.98
2022-12-31T23:23:06.879Z,325.67
2022-12-31T23:25:35.646Z,247.80
2022-12-31T23:28:05.782Z,160.02
2022-12-31T23:30:33.760Z,175.05
2022-12-31T23:33:01.756Z,161.70
2022-12-31T23:35:30.014Z,169.60
2022-12-31T23:37:58.139Z,127.82
2022-12-31T23:40:34.283Z,143.82
2022-12-31T23:43:05.745Z,113.45
2022-12-31T23:45:34.755Z,98.10
2022-12-31T23:48:03.076Z,124.82
2022-12-31T23:50:31.027Z,107.88
2022-12-31T23:52:59.024Z,98.55
2022-12-31T23:55:27.086Z,87.55
2022-12-31T23:57:55.894Z,86.88
